Huvudsida
METAR-TAF:

METAR-TAF

Flygplatser :

Førde, Norge

Førde flygplats. Bringeland

latitud: 61-27N, longitud: 005-52E, höjd: 150 m

Aktuellt väderrapport

Denna rapport gjordes för 5 timmar och 7 minuter sedan, klockan 22:20 UTC
Vind 3 kt från nord/nordväst, varierande mellan väst/nordväst och ost/nordost
Temperatur -3°C
Fuktighet 80%
Tryck 991 hPa
Sikt 10 km eller mer
Få moln på en höjd av 2000 ft
Spridda moln på en höjd av 2300 ft
Brutna moln på en höjd av 2800 ft

METAR: ENBL 182220Z 34003KT 300V070 9999 FEW020 SCT023 BKN028 M03/M06 Q0991

Tid: 04:27 (03:27 UTC)


TAF: saknas

Aktuella väderrapporter och prognoser från 4000 flygplatser (METAR- och TAF-rapporter).

De tillgängliga stationerna syns som gula och röda prickar på kartan.

För musen över prickarna för att se namnen på stationerna.

Klicka sedan för att få väderrapporter och prognoser.

För att ändra kartan: Klicka på de gröna knapparna med ett svart kors på för att zooma in; den gröna knappen med ett streck på för att zooma ut; eller på de gröna pilarna för angränsande kartor.


METAR-TAF: